createdAt,value
2019-04-20T08:23:17.224Z,103116.55
2019-04-20T08:25:38.794Z,103116.79
2019-04-20T08:27:57.477Z,103113.45
2019-04-20T08:31:00.609Z,103112.11
2019-04-20T08:33:47.183Z,103110.28
2019-04-20T08:36:17.141Z,103104.03
2019-04-20T08:39:10.580Z,103108.87
2019-04-20T08:41:15.589Z,103101.13
2019-04-20T08:44:09.432Z,103097.89
2019-04-20T08:46:20.387Z,103102.29
2019-04-20T08:48:50.967Z,103102.52
2019-04-20T08:51:22.606Z,103099.42
2019-04-20T08:53:51.759Z,103099.01
2019-04-20T08:56:19.713Z,103104.08
2019-04-20T08:58:38.931Z,103103.39
2019-04-20T09:01:14.021Z,103097.52
2019-04-20T09:03:51.260Z,103097.83
2019-04-20T09:06:29.429Z,103098.22
2019-04-20T09:08:50.837Z,103091.57
2019-04-20T09:11:31.196Z,103091.47
2019-04-20T09:13:51.891Z,103091.04
2019-04-20T09:16:19.936Z,103088.58
2019-04-20T09:18:56.694Z,103082.17
2019-04-20T09:21:35.605Z,103084.86
2019-04-20T09:24:21.762Z,103081.67
2019-04-20T09:26:48.969Z,103081.42
2019-04-20T09:29:14.878Z,103081.69
2019-04-20T09:31:47.001Z,103086.58
2019-04-20T09:34:39.340Z,103088.23
2019-04-20T09:37:14.153Z,103081.60
2019-04-20T09:40:02.439Z,103082.11
2019-04-20T09:42:15.984Z,103079.75
2019-04-20T09:44:50.961Z,103080.68
2019-04-20T09:47:25.899Z,103084.47
2019-04-20T09:50:02.715Z,103084.44
2019-04-20T09:52:54.753Z,103080.78
2019-04-20T09:55:18.460Z,103075.60
2019-04-20T09:57:54.084Z,103078.92
2019-04-20T10:00:26.906Z,103077.42
2019-04-20T10:02:42.992Z,103071.50
2019-04-20T10:05:15.674Z,103068.19
2019-04-20T10:07:55.985Z,103067.23
2019-04-20T10:10:29.718Z,103058.51
2019-04-20T10:12:52.203Z,103062.63
2019-04-20T10:15:26.321Z,103068.83
2019-04-20T10:17:54.157Z,103067.56
2019-04-20T10:20:29.665Z,103072.69
2019-04-20T10:22:54.560Z,103074.91
2019-04-20T10:25:24.571Z,103063.57
2019-04-20T10:27:55.710Z,103062.43
2019-04-20T10:30:26.323Z,103055.94
2019-04-20T10:32:55.854Z,103054.00
2019-04-20T10:35:25.567Z,103052.66
2019-04-20T10:37:57.589Z,103055.88
2019-04-20T10:40:38.100Z,103058.76
2019-04-20T10:43:09.936Z,103050.92
2019-04-20T10:45:39.405Z,103050.22
2019-04-20T10:48:08.985Z,103055.22
2019-04-20T10:50:38.974Z,103045.91
2019-04-20T10:53:09.930Z,103044.29
2019-04-20T10:55:39.776Z,103049.08
2019-04-20T10:58:11.459Z,103047.05
2019-04-20T11:00:46.124Z,103042.36
2019-04-20T11:03:19.717Z,103045.70
2019-04-20T11:05:49.070Z,103047.67
2019-04-20T11:08:24.472Z,103040.32
2019-04-20T11:11:07.352Z,103041.34
2019-04-20T11:13:29.650Z,103041.70
2019-04-20T11:16:00.115Z,103037.63
2019-04-20T11:18:31.446Z,103038.14
2019-04-20T11:21:03.519Z,103035.98
2019-04-20T11:23:34.120Z,103031.48
2019-04-20T11:26:06.302Z,103028.59
2019-04-20T11:28:35.642Z,103033.92
2019-04-20T11:31:10.238Z,103036.77
2019-04-20T11:33:40.399Z,103040.79
2019-04-20T11:36:09.648Z,103037.81
2019-04-20T11:38:38.855Z,103042.57
2019-04-20T11:41:16.544Z,103038.31
2019-04-20T11:43:42.084Z,103031.80
2019-04-20T11:46:12.431Z,103025.53
2019-04-20T11:48:47.385Z,103020.14
2019-04-20T11:51:23.354Z,103023.52
2019-04-20T11:53:52.668Z,103017.86
2019-04-20T11:56:28.019Z,103014.94
2019-04-20T11:58:53.630Z,103015.27
2019-04-20T12:01:49.325Z,103015.27
2019-04-20T12:04:30.353Z,103012.16
2019-04-20T12:06:50.974Z,103003.06
2019-04-20T12:09:24.672Z,103002.16
2019-04-20T12:12:08.226Z,103007.88
2019-04-20T12:14:28.488Z,103001.70
2019-04-20T12:16:59.510Z,103001.84
2019-04-20T12:19:31.082Z,102998.30
2019-04-20T12:22:00.722Z,102990.61
2019-04-20T12:24:31.237Z,102992.72
2019-04-20T12:27:00.877Z,102982.88
2019-04-20T12:29:44.157Z,102990.84
2019-04-20T12:32:14.640Z,102984.28
2019-04-20T12:34:45.411Z,102982.57
2019-04-20T12:37:16.193Z,102981.35
2019-04-20T12:39:46.891Z,102984.33
2019-04-20T12:42:19.019Z,102982.91
2019-04-20T12:44:48.433Z,102980.38
2019-04-20T12:47:19.610Z,102972.89
2019-04-20T12:50:03.442Z,102976.89
2019-04-20T12:52:34.565Z,102967.97
2019-04-20T12:55:06.735Z,102963.47
2019-04-20T12:57:36.525Z,102959.55
2019-04-20T13:00:13.601Z,102960.60
2019-04-20T13:02:43.257Z,102955.03
2019-04-20T13:05:13.505Z,102955.80
2019-04-20T13:07:49.179Z,102944.15
2019-04-20T13:10:16.163Z,102945.53
2019-04-20T13:12:54.321Z,102941.75
2019-04-20T13:15:36.432Z,102938.88
2019-04-20T13:18:07.453Z,102933.25
2019-04-20T13:20:37.098Z,102934.38
2019-04-20T13:23:09.260Z,102934.52
2019-04-20T13:25:39.341Z,102938.24
2019-04-20T13:28:08.720Z,102924.93
2019-04-20T13:30:39.640Z,102923.09
2019-04-20T13:33:10.185Z,102918.71
2019-04-20T13:35:43.873Z,102919.44
2019-04-20T13:38:14.135Z,102909.61
2019-04-20T13:40:44.027Z,102922.82
2019-04-20T13:43:14.086Z,102920.25
2019-04-20T13:45:44.660Z,102911.80
2019-04-20T13:48:17.177Z,102916.05
2019-04-20T13:50:51.891Z,102906.58
2019-04-20T13:53:27.230Z,102901.75
2019-04-20T13:55:59.104Z,102904.15
2019-04-20T13:58:43.688Z,102901.94
2019-04-20T14:01:27.043Z,102898.72
2019-04-20T14:04:12.713Z,102899.22
2019-04-20T14:06:45.636Z,102898.75
2019-04-20T14:09:17.200Z,102895.16
2019-04-20T14:11:47.492Z,102889.82
2019-04-20T14:14:17.378Z,102891.70
2019-04-20T14:16:47.395Z,102889.08
2019-04-20T14:19:16.805Z,102896.50
2019-04-20T14:21:46.349Z,102894.87
2019-04-20T14:24:17.105Z,102895.98
2019-04-20T14:26:46.879Z,102883.86
2019-04-20T14:29:17.209Z,102889.50
2019-04-20T14:31:48.009Z,102885.13
2019-04-20T14:34:20.598Z,102875.13
2019-04-20T14:36:51.051Z,102881.27
2019-04-20T14:39:20.444Z,102878.14
2019-04-20T14:41:54.118Z,102871.27
2019-04-20T14:44:23.829Z,102881.40
2019-04-20T14:47:11.978Z,102865.28
2019-04-20T14:49:36.810Z,102866.88
2019-04-20T14:52:08.228Z,102859.89
2019-04-20T14:54:37.645Z,102859.52
2019-04-20T14:57:07.726Z,102856.03
2019-04-20T14:59:38.859Z,102852.16
2019-04-20T15:02:10.477Z,102848.41
2019-04-20T15:04:41.250Z,102856.66
2019-04-20T15:07:10.885Z,102852.16
2019-04-20T15:09:44.773Z,102852.16
2019-04-20T15:12:14.808Z,102848.67
2019-04-20T15:14:44.969Z,102839.67
2019-04-20T15:17:17.140Z,102839.30
2019-04-20T15:19:49.481Z,102837.92
2019-04-20T15:22:35.980Z,102833.42
2019-04-20T15:25:07.620Z,102839.06
2019-04-20T15:27:37.377Z,102832.81
2019-04-20T15:30:08.654Z,102829.16
2019-04-20T15:32:38.964Z,102833.69
2019-04-20T15:35:09.033Z,102822.18
2019-04-20T15:37:41.245Z,102826.17
2019-04-20T15:40:14.997Z,102826.81
2019-04-20T15:42:54.851Z,102831.03
2019-04-20T15:45:21.234Z,102824.06
2019-04-20T15:47:52.139Z,102820.14
2019-04-20T15:50:22.200Z,102821.60
2019-04-20T15:52:54.492Z,102818.38
2019-04-20T15:55:27.402Z,102820.83
2019-04-20T15:57:55.566Z,102814.07
2019-04-20T16:00:24.880Z,102817.20
2019-04-20T16:02:59.232Z,102809.95
2019-04-20T16:05:42.964Z,102818.75
2019-04-20T16:08:18.373Z,102813.37
2019-04-20T16:10:48.768Z,102813.55
2019-04-20T16:13:26.313Z,102811.94
2019-04-20T16:15:49.749Z,102811.80
2019-04-20T16:18:20.840Z,102800.79
2019-04-20T16:20:59.391Z,102810.52
2019-04-20T16:23:25.010Z,102806.13
2019-04-20T16:26:13.509Z,102800.85
2019-04-20T16:28:43.786Z,102807.00
2019-04-20T16:31:15.273Z,102814.62
2019-04-20T16:33:46.464Z,102814.12
2019-04-20T16:36:16.583Z,102810.63
2019-04-20T16:38:45.715Z,102806.36
2019-04-20T16:41:14.867Z,102809.11
2019-04-20T16:43:46.190Z,102816.50
2019-04-20T16:46:18.749Z,102813.75
2019-04-20T16:48:48.446Z,102808.74
2019-04-20T16:51:20.760Z,102808.38
2019-04-20T16:53:51.896Z,102813.52
2019-04-20T16:56:22.393Z,102809.02
2019-04-20T16:58:57.285Z,102804.88
2019-04-20T17:01:23.929Z,102804.11
2019-04-20T17:04:04.808Z,102803.74
2019-04-20T17:06:27.767Z,102799.75
2019-04-20T17:08:58.723Z,102799.52
2019-04-20T17:11:29.876Z,102792.27
2019-04-20T17:14:01.420Z,102791.52
2019-04-20T17:16:31.543Z,102796.29
2019-04-20T17:19:01.803Z,102796.92
2019-04-20T17:21:32.575Z,102796.69
2019-04-20T17:24:03.556Z,102794.44
2019-04-20T17:26:36.738Z,102799.84
2019-04-20T17:29:08.274Z,102799.84
2019-04-20T17:31:39.806Z,102805.59
2019-04-20T17:34:28.372Z,102803.47
2019-04-20T17:36:44.317Z,102803.60
2019-04-20T17:39:15.670Z,102806.12
2019-04-20T17:42:00.565Z,102803.63
2019-04-20T17:44:31.434Z,102800.51
2019-04-20T17:47:00.490Z,102799.27
2019-04-20T17:49:34.134Z,102803.16
2019-04-20T17:52:24.048Z,102806.41
2019-04-20T17:57:33.258Z,102805.39
2019-04-20T18:00:12.138Z,102815.29
2019-04-20T18:02:59.318Z,102817.80
2019-04-20T18:05:34.121Z,102819.31
2019-04-20T18:08:10.598Z,102818.20
2019-04-20T18:10:35.440Z,102821.95
2019-04-20T18:12:53.438Z,102823.45
2019-04-20T18:15:36.029Z,102825.97
2019-04-20T18:18:18.791Z,102823.81
2019-04-20T18:20:35.188Z,102825.83
2019-04-20T18:23:06.922Z,102824.05
2019-04-20T18:26:01.528Z,102821.92
2019-04-20T18:28:22.669Z,102818.43
2019-04-20T18:30:50.296Z,102819.44
2019-04-20T18:33:13.700Z,102821.81
2019-04-20T18:35:46.019Z,102826.20
2019-04-20T18:38:16.589Z,102820.70
2019-04-20T18:40:53.488Z,102825.45
2019-04-20T18:43:21.816Z,102819.20
2019-04-20T18:46:10.974Z,102828.84
2019-04-20T18:48:37.915Z,102825.84
2019-04-20T18:50:50.455Z,102822.72
2019-04-20T18:53:28.656Z,102827.98
2019-04-20T18:55:55.534Z,102827.20
2019-04-20T18:58:22.936Z,102832.32
2019-04-20T19:00:53.702Z,102830.20
2019-04-20T19:03:31.857Z,102830.33
2019-04-20T19:05:53.998Z,102827.71
2019-04-20T19:08:31.237Z,102826.97
2019-04-20T19:11:01.531Z,102833.47
2019-04-20T19:13:36.889Z,102837.72
2019-04-20T19:16:22.203Z,102839.22
2019-04-20T19:18:58.520Z,102840.59
2019-04-20T19:21:15.213Z,102844.34
2019-04-20T19:23:53.444Z,102847.35
2019-04-20T19:26:20.591Z,102841.48
2019-04-20T19:28:52.515Z,102843.35
2019-04-20T19:31:35.197Z,102845.73
2019-04-20T19:34:09.044Z,102846.33
2019-04-20T19:36:28.778Z,102848.20
2019-04-20T19:39:07.035Z,102847.83
2019-04-20T19:41:35.378Z,102851.95
2019-04-20T19:44:04.086Z,102854.32
2019-04-20T19:46:50.645Z,102852.58
2019-04-20T19:49:04.156Z,102853.20
2019-04-20T19:51:49.277Z,102848.70
2019-04-20T19:54:18.006Z,102849.20
2019-04-20T19:56:42.524Z,102849.33
2019-04-20T19:59:10.986Z,102845.20
2019-04-20T20:01:29.527Z,102849.95
2019-04-20T20:04:02.851Z,102849.08
2019-04-20T20:06:39.180Z,102842.84
2019-04-20T20:09:05.839Z,102846.09
2019-04-20T20:11:36.936Z,102841.22
2019-04-20T20:14:06.104Z,102843.96
2019-04-20T20:16:52.679Z,102843.22
2019-04-20T20:19:12.101Z,102838.31
2019-04-20T20:21:54.442Z,102846.09
2019-04-20T20:24:10.764Z,102843.44
2019-04-20T20:26:43.823Z,102835.81
2019-04-20T20:29:19.353Z,102834.94
2019-04-20T20:31:52.813Z,102834.56
2019-04-20T20:34:22.188Z,102834.69
2019-04-20T20:36:47.252Z,102838.94
2019-04-20T20:39:22.493Z,102839.44
2019-04-20T20:41:56.347Z,102841.77
2019-04-20T20:44:28.703Z,102833.66
2019-04-20T20:47:00.753Z,102835.16
2019-04-20T20:49:37.087Z,102838.91
2019-04-20T20:52:06.759Z,102837.16
2019-04-20T20:54:36.698Z,102832.66
2019-04-20T20:56:59.690Z,102834.66
2019-04-20T20:59:35.404Z,102835.66
2019-04-20T21:02:00.982Z,102832.16
2019-04-20T21:04:23.814Z,102831.25
2019-04-20T21:06:52.970Z,102831.38
2019-04-20T21:09:25.366Z,102828.25
2019-04-20T21:12:00.608Z,102825.25
2019-04-20T21:14:27.912Z,102829.38
2019-04-20T21:17:03.060Z,102835.00
2019-04-20T21:31:43.364Z,102810.77
2019-04-20T21:34:14.955Z,102806.50
2019-04-20T21:36:41.321Z,102803.28
2019-04-20T21:39:22.063Z,102787.91
2019-04-20T21:41:51.313Z,102789.88
2019-04-20T21:44:19.076Z,102790.48
2019-04-20T21:46:48.768Z,102788.72
2019-04-20T21:49:34.718Z,102790.45
2019-04-20T21:51:54.465Z,102787.05
2019-04-20T21:54:16.211Z,102786.45
2019-04-20T21:56:53.914Z,102785.55
2019-04-20T21:59:24.436Z,102789.94
2019-04-20T22:01:55.088Z,102782.48
2019-04-20T22:04:22.471Z,102789.76
2019-04-20T22:06:50.135Z,102785.16
2019-04-20T22:09:20.340Z,102787.71
2019-04-20T22:11:49.838Z,102777.55
2019-04-20T22:14:23.894Z,102785.08
2019-04-20T22:16:53.335Z,102778.98
2019-04-20T22:19:33.454Z,102783.66
2019-04-20T22:22:03.759Z,102776.98
2019-04-20T22:24:38.127Z,102779.02
2019-04-20T22:27:04.907Z,102761.00
2019-04-20T22:29:25.932Z,102764.77
2019-04-20T22:32:00.524Z,102766.38
2019-04-20T22:34:28.130Z,102767.19
2019-04-20T22:36:58.026Z,102764.30
2019-04-20T22:39:39.377Z,102764.16
2019-04-20T22:42:08.467Z,102761.77
2019-04-20T22:44:34.818Z,102765.58
2019-04-20T22:47:12.504Z,102765.84
2019-04-20T22:49:48.606Z,102767.12
2019-04-20T22:52:26.730Z,102760.45
2019-04-20T22:54:54.579Z,102755.48
2019-04-20T22:57:28.003Z,102761.31
2019-04-20T22:59:50.598Z,102751.84
2019-04-20T23:02:11.720Z,102759.02
2019-04-20T23:04:42.559Z,102756.84
2019-04-20T23:07:12.797Z,102760.05
2019-04-20T23:09:48.643Z,102756.94
2019-04-20T23:12:17.790Z,102753.00
2019-04-20T23:14:44.736Z,102754.08
2019-04-20T23:17:18.489Z,102751.97
2019-04-20T23:19:49.445Z,102752.63
2019-04-20T23:22:16.077Z,102744.56
2019-04-20T23:24:47.139Z,102742.95
2019-04-20T23:27:21.956Z,102737.20
2019-04-20T23:29:49.069Z,102736.91
2019-04-20T23:32:19.918Z,102737.03
2019-04-20T23:35:00.191Z,102735.27
2019-04-20T23:37:27.540Z,102737.16
2019-04-20T23:39:52.779Z,102726.97
2019-04-20T23:42:24.116Z,102726.27
2019-04-20T23:44:58.746Z,102720.69
2019-04-20T23:47:30.181Z,102723.64
2019-04-20T23:50:20.836Z,102718.02
2019-04-20T23:52:54.120Z,102713.27
2019-04-20T23:55:09.817Z,102714.80
2019-04-20T23:57:37.909Z,102706.40
